AFL1011 UNNT-UNBB
Flight info
| Callsign | AFL1011 |
|---|---|
| Flight time | N/A |
| Altitude | 23000 |
| Route | ALIRO1K ALIRO ALIRO2K |
| Aircraft | A20N/M-SDE2E3FGHIRWXY/LB1 |
Departure
| Time | 2026-04-27 13:17 |
|---|---|
| Airport | Novosibirsk Tolmachevo Airport (UNNT) |
Arrival
| Time | N/A |
|---|---|
| Airport | Barnaul Gherman Titov International Airport (UNBB) |
| Time | Latitude | Longitude | Altitude | Speed | Heading |
|---|---|---|---|---|---|
| 2026-04-27 12:48 | 55.01031 | 82.67144 | 375 ft | 0 kts | 171° |
| 2026-04-27 13:05 | 55.01044 | 82.67141 | 375 ft | 4 kts | 171° |
| 2026-04-27 13:05 | 55.01066 | 82.67135 | 375 ft | 3 kts | 171° |
| 2026-04-27 13:05 | 55.01088 | 82.67130 | 375 ft | 3 kts | 171° |
| 2026-04-27 13:05 | 55.01110 | 82.67124 | 375 ft | 3 kts | 171° |
| 2026-04-27 13:06 | 55.01131 | 82.67118 | 375 ft | 1 kts | 171° |
| 2026-04-27 13:12 | 55.01129 | 82.67119 | 375 ft | 2 kts | 171° |
| 2026-04-27 13:12 | 55.01104 | 82.67152 | 375 ft | 7 kts | 120° |
| 2026-04-27 13:13 | 55.01104 | 82.67218 | 375 ft | 0 kts | 78° |
| 2026-04-27 13:13 | 55.01104 | 82.67219 | 375 ft | 1 kts | 78° |
| 2026-04-27 13:13 | 55.01107 | 82.67270 | 375 ft | 7 kts | 86° |
| 2026-04-27 13:13 | 55.01108 | 82.67318 | 375 ft | 6 kts | 89° |
| 2026-04-27 13:14 | 55.01112 | 82.67412 | 375 ft | 8 kts | 78° |
| 2026-04-27 13:14 | 55.01160 | 82.67499 | 375 ft | 13 kts | 33° |
| 2026-04-27 13:14 | 55.01251 | 82.67599 | 375 ft | 18 kts | 32° |
| 2026-04-27 13:14 | 55.01343 | 82.67698 | 374 ft | 0 kts | 29° |
| 2026-04-27 13:15 | 55.01349 | 82.67703 | 374 ft | 0 kts | 28° |
| 2026-04-27 13:15 | 55.01350 | 82.67704 | 374 ft | 0 kts | 29° |
| 2026-04-27 13:15 | 55.01360 | 82.67714 | 374 ft | 5 kts | 29° |
| 2026-04-27 13:16 | 55.01412 | 82.67763 | 373 ft | 12 kts | 25° |
| 2026-04-27 13:16 | 55.01479 | 82.67695 | 373 ft | 14 kts | 274° |
| 2026-04-27 13:16 | 55.01476 | 82.67628 | 373 ft | 0 kts | 262° |
| 2026-04-27 13:17 | 55.01474 | 82.67605 | 373 ft | 5 kts | 263° |
| 2026-04-27 13:17 | 55.01434 | 82.67157 | 377 ft | 91 kts | 262° |
| 2026-04-27 13:17 | 55.01301 | 82.65547 | 449 ft | 167 kts | 252° |
| 2026-04-27 13:17 | 55.01051 | 82.63567 | 1451 ft | 163 kts | 256° |
| 2026-04-27 13:18 | 55.00792 | 82.61613 | 2545 ft | 166 kts | 259° |
| 2026-04-27 13:18 | 55.00595 | 82.59519 | 3324 ft | 185 kts | 262° |
| 2026-04-27 13:18 | 55.00408 | 82.57234 | 3777 ft | 195 kts | 262° |
| 2026-04-27 13:18 | 55.00209 | 82.54798 | 3976 ft | 207 kts | 262° |
| 2026-04-27 13:19 | 55.00183 | 82.52336 | 4001 ft | 201 kts | 285° |
| 2026-04-27 13:19 | 55.00745 | 82.50114 | 4037 ft | 208 kts | 296° |
| 2026-04-27 13:19 | 55.01402 | 82.47790 | 4475 ft | 218 kts | 295° |
| 2026-04-27 13:19 | 55.02101 | 82.45298 | 5410 ft | 235 kts | 295° |
| 2026-04-27 13:20 | 55.02818 | 82.42727 | 6821 ft | 237 kts | 295° |
| 2026-04-27 13:20 | 55.03545 | 82.40120 | 8161 ft | 240 kts | 295° |
| 2026-04-27 13:20 | 55.04104 | 82.37391 | 9466 ft | 245 kts | 280° |
| 2026-04-27 13:20 | 55.04116 | 82.34388 | 10750 ft | 250 kts | 261° |
| 2026-04-27 13:21 | 55.03790 | 82.31334 | 11753 ft | 266 kts | 260° |
| 2026-04-27 13:21 | 55.03437 | 82.28017 | 12472 ft | 289 kts | 260° |
| 2026-04-27 13:21 | 55.03064 | 82.24439 | 13125 ft | 311 kts | 260° |
| 2026-04-27 13:21 | 55.02678 | 82.20700 | 14082 ft | 320 kts | 260° |
| 2026-04-27 13:22 | 55.02283 | 82.16867 | 15195 ft | 322 kts | 260° |
| 2026-04-27 13:22 | 55.01885 | 82.13006 | 16273 ft | 325 kts | 260° |
| 2026-04-27 13:22 | 55.01470 | 82.09109 | 17334 ft | 328 kts | 257° |
| 2026-04-27 13:22 | 55.00609 | 82.05439 | 18344 ft | 335 kts | 240° |
| 2026-04-27 13:23 | 54.99086 | 82.02290 | 18853 ft | 347 kts | 223° |
| 2026-04-27 13:23 | 54.96988 | 82.00126 | 19094 ft | 356 kts | 205° |
| 2026-04-27 13:23 | 54.94524 | 81.99267 | 19198 ft | 367 kts | 187° |
| 2026-04-27 13:23 | 54.91985 | 81.99239 | 19214 ft | 369 kts | 185° |
| 2026-04-27 13:24 | 54.89409 | 81.99275 | 19216 ft | 369 kts | 185° |
| 2026-04-27 13:24 | 54.86837 | 81.99305 | 19216 ft | 369 kts | 185° |
| 2026-04-27 13:24 | 54.84267 | 81.99315 | 19216 ft | 369 kts | 185° |
| 2026-04-27 13:24 | 54.81700 | 81.99309 | 19216 ft | 368 kts | 186° |
| 2026-04-27 13:25 | 54.79127 | 81.99294 | 19217 ft | 368 kts | 186° |
| 2026-04-27 13:25 | 54.76595 | 81.99277 | 19216 ft | 365 kts | 186° |
| 2026-04-27 13:25 | 54.74037 | 81.99256 | 19184 ft | 368 kts | 185° |
| 2026-04-27 13:25 | 54.71468 | 81.99230 | 19216 ft | 369 kts | 185° |
| 2026-04-27 13:26 | 54.68899 | 81.99209 | 19221 ft | 368 kts | 185° |
| 2026-04-27 13:26 | 54.66368 | 81.99193 | 19222 ft | 368 kts | 184° |
| 2026-04-27 13:26 | 54.63794 | 81.99795 | 19222 ft | 378 kts | 168° |
| 2026-04-27 13:26 | 54.62172 | 82.00960 | 19222 ft | 385 kts | 156° |
| 2026-04-27 13:27 | 54.60022 | 82.03801 | 19220 ft | 395 kts | 137° |
| 2026-04-27 13:27 | 54.58426 | 82.07727 | 19222 ft | 404 kts | 119° |